Time;durP1;ratioP1;P1;durP2;ratioP2;P2;SDS_P1;SDS_P2;PMS_P1;PMS_P2;Temp;Humidity;BMP_temperature;BMP_pressure;BME280_temperature;BME280_humidity;BME280_pressure;Samples;Min_cycle;Max_cycle;Signal;HPM_P1;HPM_P2
2022/06/06 00:00:17;;;;;;;536.58;483.55;;;;;;;25.17;37.37;100785.34;686406;28;21254;-64
2022/06/06 00:00:38;;;;;;;539.60;486.50;;;;;;;25.18;37.05;100786.16;687148;28;22470;-64
2022/06/06 00:01:01;;;;;;;538.28;485.17;;;;;;;25.17;37.24;100781.72;686679;28;46315;-64
2022/06/06 00:01:22;;;;;;;534.90;481.90;;;;;;;25.16;37.05;100777.31;686497;28;44497;-64
2022/06/06 00:01:44;;;;;;;538.25;485.15;;;;;;;25.17;37.47;100773.44;686143;28;44416;-64
2022/06/06 00:02:06;;;;;;;531.95;479.13;;;;;;;25.17;37.23;100778.97;686283;28;45256;-64
2022/06/06 00:02:31;;;;;;;524.85;472.15;;;;;;;25.15;37.15;100782.00;686470;28;46616;-64
2022/06/06 00:02:53;;;;;;;533.92;481.02;;;;;;;25.15;37.04;100778.41;683977;28;115127;-64
2022/06/06 00:03:15;;;;;;;538.90;485.90;;;;;;;25.13;37.33;100775.09;686998;28;21404;-64
2022/06/06 00:03:36;;;;;;;538.15;485.05;;;;;;;25.12;37.59;100768.72;686459;28;46358;-64
2022/06/06 00:04:00;;;;;;;532.13;479.23;;;;;;;25.11;37.16;100771.75;686228;28;46094;-64
2022/06/06 00:04:23;;;;;;;542.65;489.52;;;;;;;25.10;37.78;100776.47;685606;28;67569;-64
2022/06/06 00:04:44;;;;;;;536.58;483.50;;;;;;;25.07;37.85;100767.91;684727;28;69180;-64
2022/06/06 00:05:07;;;;;;;537.03;483.88;;;;;;;25.12;37.40;100784.47;686879;28;22243;-64
2022/06/06 00:05:28;;;;;;;542.65;489.48;;;;;;;25.12;37.69;100770.66;685052;28;69408;-64
2022/06/06 00:05:49;;;;;;;547.60;494.27;;;;;;;25.13;37.62;100780.63;688069;28;1479;-64
2022/06/06 00:06:12;;;;;;;552.77;499.40;;;;;;;25.13;37.43;100775.91;686545;28;46232;-64
2022/06/06 00:06:34;;;;;;;542.85;489.73;;;;;;;25.11;37.61;100772.63;685645;28;68345;-64
2022/06/06 00:06:57;;;;;;;545.33;491.98;;;;;;;25.12;37.41;100777.00;685675;28;46281;-64
2022/06/06 00:07:18;;;;;;;544.55;491.25;;;;;;;25.12;37.75;100785.31;685422;28;69468;-64
2022/06/06 00:07:39;;;;;;;552.67;499.27;;;;;;;25.13;37.15;100780.63;687473;28;23440;-64
2022/06/06 00:08:01;;;;;;;551.65;498.35;;;;;;;25.12;37.00;100771.50;687292;28;21544;-64
2022/06/06 00:08:22;;;;;;;545.72;492.52;;;;;;;25.11;37.27;100778.13;686228;28;46424;-64
2022/06/06 00:08:43;;;;;;;551.33;498.02;;;;;;;25.09;37.28;100772.03;687238;28;22403;-64
2022/06/06 00:09:05;;;;;;;544.35;491.23;;;;;;;25.11;37.65;100780.06;687047;28;21540;-64
2022/06/06 00:09:28;;;;;;;543.40;490.23;;;;;;;25.11;37.97;100780.91;686229;28;44158;-64
2022/06/06 00:09:49;;;;;;;543.03;489.83;;;;;;;25.11;37.57;100778.13;684593;28;68394;-64
2022/06/06 00:10:10;;;;;;;536.40;483.30;;;;;;;25.09;37.48;100769.28;687198;28;21505;-64
2022/06/06 00:10:32;;;;;;;546.28;492.98;;;;;;;25.12;37.24;100770.66;686884;28;23769;-64
2022/06/06 00:10:56;;;;;;;541.47;488.35;;;;;;;25.12;37.51;100771.50;687116;28;22344;-64
2022/06/06 00:11:17;;;;;;;545.03;491.83;;;;;;;25.11;37.35;100769.84;683940;28;113571;-64
2022/06/06 00:11:39;;;;;;;544.35;491.02;;;;;;;25.12;37.74;100774.25;687134;28;21335;-64
2022/06/06 00:12:02;;;;;;;544.40;491.23;;;;;;;25.12;37.77;100768.72;686642;28;45219;-64
2022/06/06 00:12:24;;;;;;;546.58;493.20;;;;;;;25.11;37.49;100772.63;684935;28;67472;-64
2022/06/06 00:12:46;;;;;;;545.10;491.65;;;;;;;25.11;37.69;100775.38;686456;28;46304;-64
2022/06/06 00:13:07;;;;;;;534.30;481.40;;;;;;;25.11;37.82;100775.38;687552;28;21432;-64
2022/06/06 00:13:28;;;;;;;536.67;483.55;;;;;;;25.11;37.58;100772.63;686140;28;44400;-64
2022/06/06 00:13:50;;;;;;;533.88;480.88;;;;;;;25.11;37.74;100774.53;687052;28;23441;-64
2022/06/06 00:14:13;;;;;;;533.92;481.02;;;;;;;25.11;37.61;100771.75;687154;28;21429;-64
2022/06/06 00:14:35;;;;;;;542.58;489.33;;;;;;;25.10;37.46;100770.94;684155;28;90920;-64
2022/06/06 00:14:56;;;;;;;547.33;494.02;;;;;;;25.11;37.73;100774.53;687301;28;21431;-64
2022/06/06 00:15:18;;;;;;;548.15;494.85;;;;;;;25.10;37.32;100767.34;686914;28;23552;-64
2022/06/06 00:15:40;;;;;;;550.05;496.73;;;;;;;25.08;37.67;100767.63;686433;28;44561;-64
2022/06/06 00:16:01;;;;;;;558.88;505.38;;;;;;;25.06;37.23;100761.53;686650;28;45250;-64
2022/06/06 00:16:22;;;;;;;553.47;500.08;;;;;;;25.07;37.83;100771.50;687372;28;22480;-64
2022/06/06 00:16:43;;;;;;;558.45;504.98;;;;;;;25.08;37.42;100769.53;685906;28;46398;-64
2022/06/06 00:17:06;;;;;;;559.70;506.08;;;;;;;25.08;37.84;100767.63;687029;28;22206;-64
2022/06/06 00:17:27;;;;;;;558.30;504.80;;;;;;;25.09;37.35;100766.50;685988;28;45157;-64
2022/06/06 00:17:48;;;;;;;553.28;499.92;;;;;;;25.08;37.74;100770.41;687253;28;23479;-64
2022/06/06 00:18:09;;;;;;;558.67;505.27;;;;;;;25.09;37.72;100765.69;686641;28;44391;-64
2022/06/06 00:18:32;;;;;;;546.22;493.05;;;;;;;25.09;37.74;100763.75;686970;28;23425;-64
2022/06/06 00:18:54;;;;;;;554.13;500.83;;;;;;;25.09;37.52;100760.97;685498;28;69412;-64
2022/06/06 00:19:16;;;;;;;551.97;498.83;;;;;;;25.09;37.84;100766.50;687477;28;21478;-64
2022/06/06 00:19:37;;;;;;;542.42;489.45;;;;;;;25.10;37.91;100761.84;686162;28;43712;-64
2022/06/06 00:20:00;;;;;;;543.15;490.05;;;;;;;25.10;37.94;100761.84;689133;28;46276;-64
2022/06/06 00:20:21;;;;;;;540.55;487.45;;;;;;;25.08;37.72;100764.88;688473;28;46195;-64
2022/06/06 00:20:42;;;;;;;533.75;480.75;;;;;;;25.08;37.29;100761.25;690243;28;9667;-64
2022/06/06 00:21:06;;;;;;;541.22;488.08;;;;;;;25.07;37.62;100765.13;690198;28;23497;-64
2022/06/06 00:21:27;;;;;;;564.15;510.15;;;;;;;25.07;37.83;100760.44;687396;28;92205;-64
2022/06/06 00:21:50;;;;;;;538.45;485.27;;;;;;;25.07;37.89;100770.66;689805;28;22402;-64
2022/06/06 00:22:11;;;;;;;527.65;474.90;;;;;;;25.07;37.77;100763.19;688156;28;69338;-64
2022/06/06 00:22:32;;;;;;;533.00;480.00;;;;;;;25.07;37.79;100765.97;689655;28;21500;-64
2022/06/06 00:22:54;;;;;;;524.60;471.85;;;;;;;25.09;37.57;100762.94;689463;28;22373;-64
2022/06/06 00:23:15;;;;;;;536.53;483.55;;;;;;;25.09;37.78;100754.63;689311;28;46327;-64
2022/06/06 00:23:37;;;;;;;525.78;472.98;;;;;;;25.08;37.73;100764.88;690039;28;20286;-64
2022/06/06 00:23:59;;;;;;;523.95;471.15;;;;;;;25.07;37.81;100763.19;689152;28;44314;-64
2022/06/06 00:24:21;;;;;;;514.38;461.88;;;;;;;25.07;37.75;100763.19;689236;28;46072;-64
2022/06/06 00:24:42;;;;;;;520.83;468.25;;;;;;;25.07;37.65;100763.19;688191;28;46585;-64
2022/06/06 00:25:04;;;;;;;520.92;468.30;;;;;;;25.06;37.52;100764.28;689123;28;22134;-64
2022/06/06 00:25:28;;;;;;;521.47;468.85;;;;;;;25.06;37.39;100763.47;689160;28;46253;-64
2022/06/06 00:25:50;;;;;;;513.15;460.83;;;;;;;25.07;37.73;100763.19;687554;28;90776;-64
2022/06/06 00:26:13;;;;;;;519.63;467.23;;;;;;;25.06;37.93;100758.75;687905;28;69196;-64
2022/06/06 00:26:35;;;;;;;517.05;464.65;;;;;;;25.07;37.83;100767.91;688295;28;67492;-64
2022/06/06 00:26:56;;;;;;;519.17;466.60;;;;;;;25.06;37.55;100761.53;688445;28;45223;-64
2022/06/06 00:27:18;;;;;;;525.80;473.13;;;;;;;25.05;37.61;100764.56;689403;28;22310;-64
2022/06/06 00:27:40;;;;;;;523.78;471.23;;;;;;;25.04;37.60;100762.94;689111;28;46282;-64
2022/06/06 00:28:01;;;;;;;531.17;478.48;;;;;;;25.04;37.36;100769.28;690140;28;22281;-64
2022/06/06 00:28:22;;;;;;;520.63;468.20;;;;;;;25.02;37.49;100763.19;689846;28;21593;-64
2022/06/06 00:28:45;;;;;;;524.15;471.52;;;;;;;25.04;37.66;100769.28;689115;28;44346;-64
2022/06/06 00:29:06;;;;;;;529.08;476.48;;;;;;;25.04;37.69;100762.94;688837;28;46264;-64
2022/06/06 00:29:27;;;;;;;530.85;477.95;;;;;;;25.05;38.14;100759.03;689156;28;45257;-64
2022/06/06 00:29:50;;;;;;;526.80;474.20;;;;;;;25.01;38.03;100758.75;689168;28;23446;-64
2022/06/06 00:30:12;;;;;;;530.42;477.80;;;;;;;25.04;37.73;100760.97;687940;28;69374;-64
2022/06/06 00:30:34;;;;;;;526.97;474.40;;;;;;;25.05;38.08;100759.88;688967;28;44511;-64
2022/06/06 00:30:56;;;;;;;532.95;480.27;;;;;;;25.08;37.82;100758.50;690009;28;23446;-64
2022/06/06 00:34:49;;;;;;;540.03;487.02;;;;;;;25.09;38.13;100760.16;684491;28;136034;-64
2022/06/06 00:35:11;;;;;;;544.17;491.17;;;;;;;25.08;37.74;100752.97;685824;28;137588;-64
2022/06/06 00:35:32;;;;;;;547.30;494.20;;;;;;;25.07;37.83;100756.84;688681;28;45041;-64
2022/06/06 00:35:56;;;;;;;543.85;490.83;;;;;;;25.07;38.27;100760.44;689663;28;21531;-64
2022/06/06 00:36:17;;;;;;;539.47;486.67;;;;;;;25.07;37.99;100765.97;687136;28;93006;-64
2022/06/06 00:36:38;;;;;;;540.60;487.77;;;;;;;25.07;37.92;100763.19;689245;28;22397;-64
2022/06/06 00:37:01;;;;;;;540.60;487.52;;;;;;;25.07;38.00;100765.13;689165;28;22401;-64
2022/06/06 00:37:24;;;;;;;540.33;487.23;;;;;;;25.07;37.73;100768.72;688101;28;69279;-64
2022/06/06 00:37:46;;;;;;;529.55;476.95;;;;;;;25.06;37.90;100767.06;689762;28;92405;-64
2022/06/06 00:38:09;;;;;;;531.47;478.90;;;;;;;25.05;37.57;100770.94;691859;28;46331;-63
2022/06/06 00:38:30;;;;;;;522.97;470.58;;;;;;;25.05;37.78;100767.31;690432;28;69255;-64
2022/06/06 00:38:51;;;;;;;530.30;477.65;;;;;;;25.03;37.87;100775.88;692459;28;21185;-64
2022/06/06 00:39:15;;;;;;;540.00;487.00;;;;;;;25.00;37.73;100773.69;692408;28;21686;-64
2022/06/06 00:39:37;;;;;;;524.28;471.67;;;;;;;24.99;38.18;100772.84;688410;28;91888;-64
2022/06/06 00:40:01;;;;;;;530.53;477.83;;;;;;;24.96;38.17;100772.56;688638;28;44379;-64
2022/06/06 00:40:24;;;;;;;532.08;479.38;;;;;;;24.96;38.33;100783.63;688146;28;69327;-64
2022/06/06 00:40:49;;;;;;;548.23;495.03;;;;;;;24.97;38.04;100777.00;687328;28;90700;-64
2022/06/06 00:41:10;;;;;;;552.10;498.70;;;;;;;24.96;38.44;100784.44;685902;28;136385;-64
2022/06/06 00:41:36;;;;;;;552.00;498.60;;;;;;;24.95;37.89;100776.44;689762;28;21501;-64
2022/06/06 00:41:57;;;;;;;555.75;502.35;;;;;;;24.94;38.19;100781.13;685793;28;136385;-64
2022/06/06 00:42:22;;;;;;;562.15;508.63;;;;;;;24.90;38.18;100774.47;689096;28;44394;-64
2022/06/06 00:42:43;;;;;;;568.65;514.92;;;;;;;24.91;38.28;100778.09;686721;28;113360;-63
2022/06/06 00:43:05;;;;;;;558.38;504.90;;;;;;;24.89;38.56;100789.41;689993;28;23273;-64
2022/06/06 00:43:26;;;;;;;541.58;488.52;;;;;;;24.88;38.31;100778.66;689611;28;21560;-63
2022/06/06 00:44:02;;;;;;;532.13;479.30;;;;;;;24.86;38.55;100781.69;689746;28;21706;-64
2022/06/06 00:44:28;;;;;;;532.50;479.50;;;;;;;24.85;38.16;100777.25;685158;28;137403;-64
2022/06/06 00:45:23;;;;;;;534.75;481.85;;;;;;;24.83;38.27;100774.75;685266;28;138177;-64
2022/06/06 00:45:46;;;;;;;524.35;471.52;;;;;;;24.83;38.45;100771.16;685798;28;135988;-63
2022/06/06 00:46:08;;;;;;;529.42;476.63;;;;;;;24.81;38.61;100770.59;688273;28;69389;-64
2022/06/06 00:46:30;;;;;;;536.20;483.20;;;;;;;24.82;38.60;100764.78;688772;28;46321;-64
2022/06/06 00:46:55;;;;;;;526.25;473.45;;;;;;;24.82;38.41;100761.22;688444;28;45261;-64
2022/06/06 00:47:21;;;;;;;521.88;468.90;;;;;;;24.77;38.34;100752.91;686410;28;115111;-64
2022/06/06 00:47:44;;;;;;;529.22;476.33;;;;;;;24.83;38.83;100757.34;685661;28;136421;-64
2022/06/06 00:48:12;;;;;;;522.10;469.40;;;;;;;24.83;38.41;100760.13;687311;28;92261;-64
2022/06/06 00:48:37;;;;;;;527.53;474.80;;;;;;;24.85;38.72;100757.91;685360;28;138635;-64
2022/06/06 00:48:58;;;;;;;524.17;471.48;;;;;;;24.85;38.77;100759.84;686811;28;113508;-63
2022/06/06 00:49:26;;;;;;;519.20;466.70;;;;;;;24.86;38.33;100765.09;689791;28;21543;-64
2022/06/06 00:49:51;;;;;;;532.53;479.63;;;;;;;24.86;38.44;100767.88;685212;28;138784;-64
2022/06/06 00:50:14;;;;;;;526.72;474.13;;;;;;;24.87;38.60;100763.16;686339;28;114356;-64
2022/06/06 00:50:42;;;;;;;533.90;481.05;;;;;;;24.88;38.59;100770.34;688080;28;69162;-64
2022/06/06 00:51:06;;;;;;;535.33;482.42;;;;;;;24.88;38.47;100762.88;685883;28;136521;-64
2022/06/06 00:51:27;;;;;;;534.15;481.20;;;;;;;24.89;38.69;100763.72;687872;28;69384;-64
2022/06/06 00:51:48;;;;;;;540.03;487.02;;;;;;;24.85;38.30;100765.38;688932;28;46234;-64
2022/06/06 00:52:13;;;;;;;538.17;485.25;;;;;;;24.83;38.49;100760.94;688858;28;46557;-64
2022/06/06 00:52:36;;;;;;;542.70;489.60;;;;;;;24.87;38.71;100775.03;687303;28;92756;-64
2022/06/06 00:52:59;;;;;;;542.33;489.25;;;;;;;24.86;38.57;100762.34;687333;28;90670;-64
2022/06/06 00:53:27;;;;;;;544.13;491.02;;;;;;;24.86;38.57;100762.34;688180;28;70004;-64
2022/06/06 00:53:51;;;;;;;552.20;498.80;;;;;;;24.85;38.61;100766.19;684984;28;159165;-64
2022/06/06 00:54:13;;;;;;;544.08;490.83;;;;;;;24.85;38.37;100763.44;686397;28;115055;-64
2022/06/06 00:54:34;;;;;;;553.90;500.35;;;;;;;24.87;38.20;100766.75;689163;28;22383;-64
2022/06/06 00:55:01;;;;;;;552.78;499.38;;;;;;;24.88;38.26;100759.31;689889;28;23413;-64
2022/06/06 00:55:25;;;;;;;555.38;501.85;;;;;;;24.88;38.60;100764.84;685694;28;138831;-64
2022/06/06 00:55:49;;;;;;;552.28;498.92;;;;;;;24.88;38.57;100764.84;686613;28;115192;-64
2022/06/06 00:56:15;;;;;;;546.78;493.63;;;;;;;24.86;38.71;100759.56;688209;28;69442;-64
2022/06/06 00:56:39;;;;;;;554.35;500.98;;;;;;;24.87;38.83;100754.88;685346;28;138013;-64
2022/06/06 00:57:03;;;;;;;563.42;509.63;;;;;;;24.87;38.34;100760.41;686581;28;90955;-64
2022/06/06 00:57:27;;;;;;;561.33;507.65;;;;;;;24.87;38.41;100763.16;687657;28;69226;-64
2022/06/06 00:57:51;;;;;;;551.85;498.38;;;;;;;24.85;38.57;100762.59;686510;28;115071;-64
2022/06/06 00:58:16;;;;;;;551.05;497.60;;;;;;;24.86;38.59;100759.56;686971;28;92228;-64
2022/06/06 00:58:40;;;;;;;551.53;498.13;;;;;;;24.86;38.64;100759.56;686980;28;92254;-64
2022/06/06 00:59:08;;;;;;;552.63;499.33;;;;;;;24.87;38.34;100763.16;688410;28;61644;-64
2022/06/06 00:59:31;;;;;;;545.38;492.27;;;;;;;24.87;38.26;100761.22;685877;28;137988;-64
2022/06/06 00:59:53;;;;;;;545.13;491.92;;;;;;;24.87;38.36;100763.97;692211;28;66381;-64
2022/06/06 01:00:16;;;;;;;547.15;493.50;;;;;;;24.85;38.30;100760.66;692258;28;44431;-63
2022/06/06 01:00:39;;;;;;;561.03;506.92;;;;;;;24.86;38.43;100761.50;693113;28;68343;-64
2022/06/06 01:01:01;;;;;;;552.78;499.27;;;;;;;24.86;38.40;100755.97;692831;28;69402;-64
2022/06/06 01:01:23;;;;;;;547.50;494.10;;;;;;;24.87;38.68;100765.91;695121;28;1478;-64
2022/06/06 01:01:44;;;;;;;548.47;494.98;;;;;;;24.86;38.21;100755.97;691543;28;46278;-64
2022/06/06 01:02:08;;;;;;;549.28;495.95;;;;;;;24.86;38.21;100758.72;689192;28;22363;-64
2022/06/06 01:02:29;;;;;;;559.90;506.27;;;;;;;24.86;38.57;100759.56;686849;28;92316;-64
2022/06/06 01:02:53;;;;;;;557.53;504.02;;;;;;;24.86;38.16;100754.06;689272;28;22191;-64
2022/06/06 01:03:16;;;;;;;545.80;492.60;;;;;;;24.86;38.48;100761.50;687212;28;92105;-64
2022/06/06 01:03:40;;;;;;;536.92;483.88;;;;;;;24.84;38.43;100761.75;688179;28;69389;-64
2022/06/06 01:04:03;;;;;;;525.08;472.38;;;;;;;24.86;38.09;100756.81;687284;28;92274;-64
2022/06/06 01:04:26;;;;;;;529.25;476.42;;;;;;;24.86;38.68;100761.50;687771;28;69765;-64
2022/06/06 01:04:49;;;;;;;537.85;484.75;;;;;;;24.86;38.31;100754.06;688140;28;45210;-64
2022/06/06 01:05:12;;;;;;;537.13;484.13;;;;;;;24.86;38.58;100755.97;686709;28;92019;-64
2022/06/06 01:05:34;;;;;;;535.42;482.42;;;;;;;24.87;38.71;100752.94;687845;28;68411;-64
2022/06/06 01:05:57;;;;;;;535.50;482.52;;;;;;;24.87;38.26;100755.69;688729;28;43927;-64
2022/06/06 01:06:22;;;;;;;531.47;478.50;;;;;;;24.86;38.46;100765.09;686974;28;69422;-64
2022/06/06 01:06:45;;;;;;;539.97;486.77;;;;;;;24.87;38.66;100763.16;684597;28;137756;-64
2022/06/06 01:07:07;;;;;;;538.00;484.77;;;;;;;24.85;38.49;100771.72;687328;28;70647;-64
2022/06/06 01:07:28;;;;;;;535.65;482.70;;;;;;;24.85;38.77;100766.19;688313;28;46383;-64
2022/06/06 01:07:51;;;;;;;532.75;479.85;;;;;;;24.86;38.79;100758.72;690310;28;2123;-64
2022/06/06 01:08:14;;;;;;;542.65;489.55;;;;;;;24.82;39.01;100755.69;689207;28;44513;-64
2022/06/06 01:08:36;;;;;;;539.75;486.65;;;;;;;24.86;38.91;100765.09;687075;28;70175;-64
2022/06/06 01:08:59;;;;;;;541.00;487.80;;;;;;;24.85;39.07;100763.44;687993;28;67485;-64
2022/06/06 01:09:21;;;;;;;536.22;483.13;;;;;;;24.85;38.81;100759.84;688720;28;45103;-64
2022/06/06 01:09:43;;;;;;;535.55;482.55;;;;;;;24.85;39.23;100759.84;687866;28;44384;-64
2022/06/06 01:10:05;;;;;;;528.90;476.13;;;;;;;24.84;38.85;100759.00;688891;28;46899;-64
2022/06/06 01:10:27;;;;;;;532.42;479.55;;;;;;;24.82;39.33;100759.28;688831;28;45309;-64
2022/06/06 01:10:48;;;;;;;532.85;479.92;;;;;;;24.82;39.52;100762.03;688968;28;46380;-64
2022/06/06 01:11:09;;;;;;;538.85;485.73;;;;;;;24.80;39.25;100757.91;688882;28;45308;-64
2022/06/06 01:11:34;;;;;;;540.08;486.88;;;;;;;24.81;39.19;100756.78;689549;28;21502;-64
2022/06/06 01:11:59;;;;;;;540.50;487.42;;;;;;;24.78;39.34;100749.88;687512;28;90709;-64
2022/06/06 01:12:21;;;;;;;540.65;487.55;;;;;;;24.80;39.48;100752.38;686464;28;115081;-64
2022/06/06 01:12:43;;;;;;;541.17;487.98;;;;;;;24.80;39.49;100749.63;688709;28;46349;-64
2022/06/06 01:13:08;;;;;;;544.92;491.63;;;;;;;24.79;39.54;100759.81;688065;28;69267;-64
2022/06/06 01:13:31;;;;;;;549.95;496.50;;;;;;;24.79;39.26;100750.72;687345;28;92208;-64
2022/06/06 01:13:54;;;;;;;553.83;500.23;;;;;;;24.78;39.78;100758.19;688283;28;52487;-64
2022/06/06 01:14:19;;;;;;;578.78;524.55;;;;;;;24.79;39.49;100750.72;687995;28;69395;-64
2022/06/06 01:14:44;;;;;;;588.85;534.20;;;;;;;24.78;39.55;100752.66;685722;28;114928;-64
2022/06/06 01:15:09;;;;;;;605.58;550.40;;;;;;;24.77;39.69;100745.47;686648;28;115777;-64
2022/06/06 01:15:35;;;;;;;607.37;552.23;;;;;;;24.78;39.60;100743.50;686400;28;115197;-64
2022/06/06 01:16:14;;;;;;;626.40;570.70;;;;;;;24.77;39.52;100739.94;685772;28;138022;-64
2022/06/06 01:16:46;;;;;;;621.45;565.85;;;;;;;24.77;39.50;100739.94;685894;28;137453;-64
2022/06/06 01:17:14;;;;;;;613.15;557.65;;;;;;;24.78;39.38;100736.06;684746;28;135723;-64
2022/06/06 01:17:41;;;;;;;610.15;554.80;;;;;;;24.79;39.24;100736.91;685156;28;138012;-64
2022/06/06 01:18:07;;;;;;;550.03;496.73;;;;;;;24.79;39.32;100729.44;685931;28;137965;-64
2022/06/06 01:18:36;;;;;;;568.03;514.03;;;;;;;24.81;39.60;100738.28;685490;28;137891;-64
2022/06/06 01:19:33;;;;;;;591.17;536.35;;;;;;;24.81;39.30;100731.91;684925;28;161478;-64
2022/06/06 01:20:19;;;;;;;558.22;504.58;;;;;;;24.83;39.29;100738.03;684543;28;158812;-64
2022/06/06 01:21:03;;;;;;;611.88;556.55;;;;;;;24.81;38.84;100732.78;688118;28;59667;-64
2022/06/06 01:22:03;;;;;;;603.75;548.83;;;;;;;24.83;39.10;100740.78;685522;28;138120;-64
2022/06/06 01:22:58;;;;;;;545.65;492.58;;;;;;;24.86;39.15;100737.47;679804;28;136536;-64
2022/06/06 01:23:51;;;;;;;574.38;520.42;;;;;;;24.87;39.03;100738.31;682676;28;137650;-64
2022/06/06 01:24:59;;;;;;;562.50;508.95;;;;;;;24.88;39.13;100737.22;685869;28;138082;-64
2022/06/06 01:25:38;;;;;;;614.97;559.63;;;;;;;24.85;39.43;100735.81;678540;28;157101;-64
2022/06/06 01:26:14;;;;;;;561.30;507.77;;;;;;;24.85;39.07;100732.22;679973;28;137471;-64
2022/06/06 01:26:48;;;;;;;601.60;546.72;;;;;;;24.87;39.18;100732.78;680083;28;138901;-64
2022/06/06 01:27:39;;;;;;;620.30;564.70;;;;;;;24.87;39.23;100738.31;679069;28;137729;-64
2022/06/06 01:28:02;;;;;;;600.15;545.33;;;;;;;24.87;39.17;100735.53;683657;28;137558;-64
2022/06/06 01:28:42;;;;;;;602.35;547.38;;;;;;;24.87;39.25;100736.34;687932;28;70136;-64
2022/06/06 01:29:05;;;;;;;545.17;492.07;;;;;;;24.87;38.88;100735.53;685358;28;136073;-64
2022/06/06 01:29:28;;;;;;;564.42;510.77;;;;;;;24.87;39.28;100733.59;686801;28;93379;-64
2022/06/06 01:29:55;;;;;;;627.63;571.92;;;;;;;24.86;38.87;100736.63;686967;28;67345;-64
2022/06/06 01:30:19;;;;;;;567.70;514.00;;;;;;;24.86;39.24;100728.34;684713;28;161776;-64
2022/06/06 01:30:42;;;;;;;562.45;508.88;;;;;;;24.85;38.93;100726.69;686194;28;113566;-64
2022/06/06 01:31:07;;;;;;;555.67;502.27;;;;;;;24.85;39.13;100729.47;688040;28;67380;-64
2022/06/06 01:31:36;;;;;;;575.35;521.40;;;;;;;24.83;39.48;100741.59;686330;28;113832;-64
2022/06/06 01:32:01;;;;;;;543.60;490.42;;;;;;;24.83;39.60;100735.25;685113;28;160105;-64
2022/06/06 01:32:22;;;;;;;586.08;531.63;;;;;;;24.82;39.06;100731.66;685993;28;113676;-64
2022/06/06 01:32:45;;;;;;;604.80;549.80;;;;;;;24.82;39.16;100728.88;688805;28;44360;-64
2022/06/06 01:33:10;;;;;;;561.50;507.90;;;;;;;24.82;39.39;100733.59;687926;28;68462;-64
2022/06/06 01:33:47;;;;;;;542.45;489.45;;;;;;;24.84;39.12;100731.38;687068;28;91988;-64
2022/06/06 01:34:10;;;;;;;606.13;551.22;;;;;;;24.80;39.16;100728.34;685718;28;137591;-63
2022/06/06 01:34:34;;;;;;;583.47;529.10;;;;;;;24.83;39.05;100729.75;687852;28;69428;-64
2022/06/06 01:34:55;;;;;;;570.58;516.72;;;;;;;24.82;39.46;100730.81;685884;28;112135;-64
2022/06/06 01:35:22;;;;;;;574.90;520.90;;;;;;;24.81;39.47;100732.78;688610;28;46368;-64
2022/06/06 01:35:46;;;;;;;556.08;502.58;;;;;;;24.82;39.21;100728.06;685602;28;136405;-64
2022/06/06 01:36:08;;;;;;;559.92;506.40;;;;;;;24.79;39.31;100728.63;687077;28;93399;-64
2022/06/06 01:36:30;;;;;;;563.75;510.05;;;;;;;24.81;39.30;100730.00;687878;28;46364;-64
2022/06/06 01:36:54;;;;;;;553.15;499.63;;;;;;;24.81;39.53;100727.25;688435;28;45236;-63
2022/06/06 01:37:23;;;;;;;571.00;516.85;;;;;;;24.82;39.22;100734.41;687106;28;92327;-64
2022/06/06 01:37:46;;;;;;;553.15;499.73;;;;;;;24.81;39.08;100729.16;685578;28;137483;-64
2022/06/06 01:38:08;;;;;;;557.70;504.17;;;;;;;24.80;39.53;100731.09;687918;28;69383;-64
2022/06/06 01:38:29;;;;;;;557.22;503.70;;;;;;;24.79;39.26;100728.63;688618;28;44540;-64
2022/06/06 01:38:50;;;;;;;571.78;517.88;;;;;;;24.79;39.35;100729.44;689863;28;21533;-64
2022/06/06 01:39:12;;;;;;;564.60;511.00;;;;;;;24.79;39.26;100723.91;689864;28;22390;-64
2022/06/06 01:39:33;;;;;;;567.50;513.65;;;;;;;24.79;39.10;100732.19;688112;28;47336;-64
2022/06/06 01:39:56;;;;;;;570.22;516.42;;;;;;;24.79;39.35;100726.66;689477;28;22423;-64
2022/06/06 01:40:18;;;;;;;552.17;498.88;;;;;;;24.79;39.22;100729.44;688776;28;44525;-64
2022/06/06 01:40:46;;;;;;;569.63;515.90;;;;;;;24.78;39.20;100727.78;688168;28;69401;-64
2022/06/06 01:41:10;;;;;;;578.10;524.05;;;;;;;24.78;39.09;100732.47;685352;28;138491;-64
2022/06/06 01:41:38;;;;;;;572.90;519.08;;;;;;;24.76;39.06;100724.44;687087;28;93547;-64
2022/06/06 01:42:06;;;;;;;592.85;538.30;;;;;;;24.77;39.15;100728.06;685643;28;136164;-64
2022/06/06 01:42:30;;;;;;;544.28;491.30;;;;;;;24.78;39.55;100724.19;685621;28;137555;-64
2022/06/06 01:42:55;;;;;;;578.80;524.78;;;;;;;24.76;39.43;100729.97;686369;28;115256;-64
2022/06/06 01:43:21;;;;;;;560.40;506.73;;;;;;;24.77;39.34;100720.59;686245;28;114841;-64
2022/06/06 01:43:46;;;;;;;605.33;550.35;;;;;;;24.76;39.13;100723.63;686518;28;114764;-64
2022/06/06 01:44:12;;;;;;;546.25;493.20;;;;;;;24.75;39.22;100725.56;685622;28;136559;-64
2022/06/06 01:44:39;;;;;;;594.22;539.63;;;;;;;24.75;39.36;100721.97;685516;28;113558;-64
2022/06/06 01:45:04;;;;;;;561.47;507.88;;;;;;;24.75;39.43;100724.72;685991;28;138749;-63
2022/06/06 01:45:30;;;;;;;555.85;502.38;;;;;;;24.74;39.18;100725.84;686366;28;113989;-64
2022/06/06 01:45:54;;;;;;;553.90;500.52;;;;;;;24.73;39.15;100727.75;685837;28;137965;-64
2022/06/06 01:46:18;;;;;;;552.42;499.05;;;;;;;24.71;39.56;100721.69;686223;28;115115;-64
2022/06/06 01:46:42;;;;;;;533.28;480.40;;;;;;;24.72;39.38;100722.50;687016;28;92971;-64
2022/06/06 01:47:06;;;;;;;537.80;484.80;;;;;;;24.71;39.34;100723.63;686955;28;92310;-64
2022/06/06 01:47:31;;;;;;;538.08;485.17;;;;;;;24.72;39.51;100723.34;686386;28;114451;-64
2022/06/06 01:47:56;;;;;;;535.38;482.50;;;;;;;24.71;39.49;100724.44;687120;28;93033;-64
2022/06/06 01:48:21;;;;;;;533.83;480.90;;;;;;;24.70;39.32;100721.97;685457;28;136542;-64
2022/06/06 01:48:42;;;;;;;562.72;508.77;;;;;;;24.69;39.60;100723.91;686342;28;113572;-64
2022/06/06 01:49:06;;;;;;;536.75;483.77;;;;;;;24.66;39.43;100718.91;688944;28;47082;-64
2022/06/06 01:49:29;;;;;;;539.25;486.23;;;;;;;24.69;39.50;100721.13;687649;28;67465;-64
2022/06/06 01:49:50;;;;;;;534.53;481.65;;;;;;;24.69;39.13;100717.56;687125;28;69416;-64
2022/06/06 01:50:12;;;;;;;532.75;480.02;;;;;;;24.68;39.69;100722.22;688995;28;45301;-64
2022/06/06 01:50:35;;;;;;;525.85;473.23;;;;;;;24.68;39.22;100716.72;689708;28;21534;-64
2022/06/06 01:50:57;;;;;;;544.63;491.52;;;;;;;24.68;39.22;100725.00;688033;28;67487;-64
2022/06/06 01:51:21;;;;;;;536.47;483.52;;;;;;;24.68;39.59;100716.72;688644;28;44308;-64
2022/06/06 01:51:42;;;;;;;532.55;479.70;;;;;;;24.69;39.09;100717.56;687272;28;92343;-64
2022/06/06 01:52:08;;;;;;;531.28;478.58;;;;;;;24.69;39.45;100721.13;689777;28;21531;-64
2022/06/06 01:52:30;;;;;;;539.55;486.70;;;;;;;24.69;39.12;100723.91;685423;28;139542;-64
2022/06/06 01:52:53;;;;;;;539.05;486.08;;;;;;;24.67;39.02;100720.59;687746;28;69401;-63
2022/06/06 01:53:17;;;;;;;542.65;489.65;;;;;;;24.69;39.20;100721.13;687980;28;69424;-64